createdAt,value
2019-05-03T00:02:28.965Z,11.12
2019-05-03T00:05:47.188Z,14.18
2019-05-03T00:08:53.851Z,11.25
2019-05-03T00:12:01.908Z,11.30
2019-05-03T00:15:17.660Z,10.98
2019-05-03T00:18:24.317Z,12.40
2019-05-03T00:21:32.693Z,10.55
2019-05-03T00:24:39.316Z,11.40
2019-05-03T00:27:46.123Z,15.80
2019-05-03T00:30:52.772Z,11.95
2019-05-03T00:34:04.204Z,15.28
2019-05-03T00:37:13.963Z,11.65
2019-05-03T00:40:29.956Z,11.75
2019-05-03T00:43:36.558Z,12.45
2019-05-03T00:46:43.067Z,12.68
2019-05-03T00:49:51.725Z,12.98
2019-05-03T00:52:58.821Z,12.55
2019-05-03T00:56:05.442Z,11.45
2019-05-03T00:59:12.747Z,12.35
2019-05-03T01:02:19.669Z,13.85
2019-05-03T01:05:26.251Z,10.60
2019-05-03T01:08:32.799Z,14.50
2019-05-03T01:11:39.362Z,10.70
2019-05-03T01:14:47.759Z,14.53
2019-05-03T01:17:54.281Z,13.78
2019-05-03T01:21:02.302Z,12.58
2019-05-03T01:24:09.010Z,13.15
2019-05-03T01:27:15.570Z,11.88
2019-05-03T01:30:22.651Z,14.85
2019-05-03T01:33:29.344Z,15.53
2019-05-03T01:36:35.986Z,15.20
2019-05-03T01:39:42.486Z,12.90
2019-05-03T01:42:49.045Z,12.65
2019-05-03T01:45:55.598Z,12.63
2019-05-03T01:49:22.784Z,13.25
2019-05-03T01:52:35.347Z,13.25
2019-05-03T01:55:53.855Z,12.18
2019-05-03T01:59:01.843Z,19.48
2019-05-03T02:02:26.370Z,19.42
2019-05-03T02:05:48.743Z,17.52
2019-05-03T02:08:55.244Z,17.00
2019-05-03T02:12:02.211Z,16.87
2019-05-03T02:15:11.795Z,20.27
2019-05-03T02:18:18.397Z,21.60
2019-05-03T02:21:25.145Z,22.48
2019-05-03T02:24:32.727Z,21.97
2019-05-03T02:27:42.042Z,19.70
2019-05-03T02:30:48.759Z,22.95
2019-05-03T02:33:56.257Z,21.55
2019-05-03T02:37:03.289Z,20.20
2019-05-03T02:40:13.001Z,23.60
2019-05-03T02:43:26.243Z,22.95
2019-05-03T02:46:45.465Z,18.05
2019-05-03T02:50:05.863Z,27.35
2019-05-03T02:53:11.929Z,29.05
2019-05-03T02:56:22.564Z,17.35
2019-05-03T02:59:26.860Z,22.65
2019-05-03T03:02:36.421Z,22.70
2019-05-03T03:05:46.283Z,17.85
2019-05-03T03:08:55.983Z,20.43
2019-05-03T03:12:06.048Z,15.23
2019-05-03T03:15:12.484Z,20.43
2019-05-03T03:18:22.048Z,19.17
2019-05-03T03:21:35.813Z,20.40
2019-05-03T03:24:45.762Z,22.80
2019-05-03T03:27:57.602Z,19.65
2019-05-03T03:31:32.489Z,14.33
2019-05-03T03:34:54.784Z,7.03
2019-05-03T03:37:56.125Z,7.25
2019-05-03T03:41:05.907Z,7.75
2019-05-03T03:44:15.289Z,4.80
2019-05-03T03:47:27.530Z,6.22
2019-05-03T03:50:37.351Z,6.00
2019-05-03T03:53:46.630Z,7.28
2019-05-03T03:57:03.577Z,8.78
2019-05-03T04:00:06.036Z,6.70
2019-05-03T04:03:15.511Z,5.12
2019-05-03T04:06:22.671Z,5.20
2019-05-03T04:09:29.180Z,6.30
2019-05-03T04:12:35.792Z,4.62
2019-05-03T04:15:51.070Z,6.10
2019-05-03T04:19:05.725Z,4.65
2019-05-03T04:22:12.419Z,13.22
2019-05-03T04:25:19.317Z,5.20
2019-05-03T04:28:26.629Z,6.25
2019-05-03T04:31:33.212Z,5.58
2019-05-03T04:34:40.003Z,5.47
2019-05-03T04:37:46.565Z,5.67
2019-05-03T04:40:55.900Z,5.10
2019-05-03T04:44:01.535Z,9.85
2019-05-03T04:47:08.119Z,5.92
2019-05-03T04:50:16.246Z,6.42
2019-05-03T04:53:25.795Z,7.55
2019-05-03T04:56:31.230Z,6.87
2019-05-03T04:59:37.763Z,5.35
2019-05-03T05:02:45.725Z,5.42
2019-05-03T05:05:55.488Z,4.97
2019-05-03T05:09:05.046Z,5.40
2019-05-03T05:12:11.889Z,4.58
2019-05-03T05:15:18.485Z,6.05
2019-05-03T05:18:31.567Z,7.10
2019-05-03T05:21:44.812Z,5.70
2019-05-03T05:24:51.511Z,6.45
2019-05-03T05:28:25.794Z,6.47
2019-05-03T05:31:32.330Z,4.75
2019-05-03T05:34:38.918Z,4.67
2019-05-03T05:37:47.459Z,5.60
2019-05-03T05:40:56.329Z,5.00
2019-05-03T05:44:05.259Z,4.50
2019-05-03T05:47:18.561Z,7.35
2019-05-03T05:50:29.099Z,6.37
2019-05-03T05:53:35.954Z,5.62
2019-05-03T05:57:14.976Z,5.85
2019-05-03T06:00:25.704Z,7.10
2019-05-03T06:03:34.335Z,10.18
2019-05-03T06:06:49.650Z,7.08
2019-05-03T06:10:05.251Z,7.08
2019-05-03T06:13:36.296Z,6.75
2019-05-03T06:17:00.189Z,7.92
2019-05-03T06:20:17.174Z,7.53
2019-05-03T06:23:31.294Z,6.80
2019-05-03T06:26:45.824Z,7.50
2019-05-03T06:29:54.596Z,8.20
2019-05-03T06:33:01.429Z,9.63
2019-05-03T06:36:07.997Z,7.17
2019-05-03T06:39:15.440Z,12.50
2019-05-03T06:42:23.013Z,9.63
2019-05-03T06:45:29.611Z,10.03
2019-05-03T06:48:36.290Z,10.55
2019-05-03T06:51:45.593Z,9.03
2019-05-03T06:54:51.254Z,6.75
2019-05-03T06:57:57.648Z,10.38
2019-05-03T07:01:14.899Z,10.72
2019-05-03T07:04:25.942Z,9.80
2019-05-03T07:07:42.136Z,9.70
2019-05-03T07:10:51.799Z,8.28
2019-05-03T07:13:58.585Z,5.75
2019-05-03T07:17:05.670Z,7.78
2019-05-03T07:20:14.737Z,10.15
2019-05-03T07:23:21.578Z,6.35
2019-05-03T07:26:28.246Z,6.25
2019-05-03T07:29:36.624Z,9.50
2019-05-03T07:32:45.114Z,5.90
2019-05-03T07:35:51.581Z,4.83
2019-05-03T07:38:58.093Z,6.28
2019-05-03T07:42:05.524Z,9.15
2019-05-03T07:45:14.838Z,3.80
2019-05-03T07:48:25.296Z,5.05
2019-05-03T07:51:31.616Z,5.90
2019-05-03T07:54:38.175Z,3.55
2019-05-03T07:57:50.356Z,4.60
2019-05-03T08:01:06.064Z,4.85
2019-05-03T08:04:08.116Z,4.90
2019-05-03T08:07:22.691Z,5.00
2019-05-03T08:10:25.640Z,5.95
2019-05-03T08:13:32.463Z,5.85
2019-05-03T08:16:39.051Z,6.72
2019-05-03T08:19:45.546Z,7.90
2019-05-03T08:22:52.256Z,6.22
2019-05-03T08:25:58.757Z,4.90
2019-05-03T08:29:15.285Z,5.67
2019-05-03T08:32:35.269Z,3.98
2019-05-03T08:35:44.815Z,5.40
2019-05-03T08:38:51.396Z,6.47
2019-05-03T08:42:00.709Z,5.33
2019-05-03T08:45:08.424Z,5.75
2019-05-03T08:48:15.245Z,5.62
2019-05-03T08:51:21.904Z,6.20
2019-05-03T08:54:28.650Z,6.87
2019-05-03T08:57:36.179Z,7.10
2019-05-03T09:00:45.442Z,5.80
2019-05-03T09:03:52.360Z,6.50
2019-05-03T09:06:59.372Z,6.20
2019-05-03T09:10:20.213Z,6.37
2019-05-03T09:13:34.306Z,6.60
2019-05-03T09:16:40.962Z,4.97
2019-05-03T09:19:50.633Z,4.25
2019-05-03T09:22:57.230Z,6.20
2019-05-03T09:26:04.667Z,6.05
2019-05-03T09:29:11.442Z,7.95
2019-05-03T09:32:17.884Z,5.00
2019-05-03T09:35:32.568Z,7.80
2019-05-03T09:38:34.993Z,6.12
2019-05-03T09:41:42.015Z,8.00
2019-05-03T09:44:48.483Z,6.42
2019-05-03T09:47:55.994Z,8.68
2019-05-03T09:51:05.691Z,7.17
2019-05-03T09:54:17.962Z,9.65
2019-05-03T09:57:24.831Z,5.45
2019-05-03T10:00:31.401Z,5.10
2019-05-03T10:03:37.933Z,6.30
2019-05-03T10:06:45.200Z,4.60
2019-05-03T10:09:52.104Z,5.53
2019-05-03T10:12:58.617Z,65.42
2019-05-03T10:16:06.032Z,10.20
2019-05-03T10:19:14.378Z,6.28
2019-05-03T10:22:26.859Z,5.70
2019-05-03T10:25:35.718Z,7.17
2019-05-03T10:28:41.861Z,11.57
2019-05-03T10:31:59.399Z,7.62
2019-05-03T10:35:08.511Z,3.87
2019-05-03T10:38:15.214Z,7.62
2019-05-03T10:41:21.690Z,5.50
2019-05-03T10:44:28.145Z,3.87
2019-05-03T10:47:36.849Z,4.42
2019-05-03T10:50:43.353Z,3.25
2019-05-03T10:53:55.273Z,2.83
2019-05-03T10:57:10.534Z,7.10
2019-05-03T11:00:42.530Z,5.33
2019-05-03T11:03:27.840Z,4.22
2019-05-03T11:06:35.562Z,3.25
2019-05-03T11:09:49.837Z,4.87
2019-05-03T11:12:51.695Z,3.85
2019-05-03T11:15:58.286Z,5.22
2019-05-03T11:19:05.497Z,2.98
2019-05-03T11:22:12.158Z,4.55
2019-05-03T11:25:18.706Z,3.95
2019-05-03T11:28:27.020Z,4.50
2019-05-03T11:32:09.483Z,2.92
2019-05-03T11:35:24.709Z,10.58
2019-05-03T11:38:36.852Z,3.10
2019-05-03T11:41:46.793Z,4.67
2019-05-03T11:44:55.197Z,3.25
2019-05-03T11:48:01.652Z,3.65
2019-05-03T11:51:08.190Z,4.62
2019-05-03T11:54:15.597Z,5.87
2019-05-03T11:57:26.768Z,5.62
2019-05-03T12:00:35.989Z,3.08
2019-05-03T12:04:04.972Z,4.37
2019-05-03T12:07:15.108Z,2.50
2019-05-03T12:10:36.111Z,4.00
2019-05-03T12:13:32.801Z,3.47
2019-05-03T12:17:10.697Z,2.98
2019-05-03T12:19:50.643Z,4.53
2019-05-03T12:22:58.201Z,4.10
2019-05-03T12:26:10.836Z,4.03
2019-05-03T12:29:15.346Z,4.78
2019-05-03T12:32:22.541Z,4.40
2019-05-03T12:35:29.551Z,4.08
2019-05-03T12:38:36.079Z,4.42
2019-05-03T12:41:42.595Z,3.10
2019-05-03T12:44:49.436Z,4.90
2019-05-03T12:47:56.095Z,3.20
2019-05-03T12:51:03.103Z,2.42
2019-05-03T12:54:11.866Z,2.60
2019-05-03T12:57:18.320Z,5.10
2019-05-03T13:00:56.575Z,5.03
2019-05-03T13:04:09.602Z,2.65
2019-05-03T13:07:25.794Z,5.80
2019-05-03T13:10:34.333Z,3.25
2019-05-03T13:13:40.839Z,2.40
2019-05-03T13:16:47.430Z,4.42
2019-05-03T13:19:54.661Z,2.33
2019-05-03T13:23:01.363Z,3.40
2019-05-03T13:26:08.052Z,2.17
2019-05-03T13:29:15.323Z,3.20
2019-05-03T13:32:21.941Z,5.17
2019-05-03T13:35:28.422Z,4.67
2019-05-03T13:38:36.282Z,3.08
2019-05-03T13:41:45.513Z,2.50
2019-05-03T13:44:52.417Z,3.33
2019-05-03T13:47:58.991Z,4.60
2019-05-03T13:51:06.771Z,2.50
2019-05-03T13:54:15.064Z,3.67
2019-05-03T13:57:22.078Z,4.70
2019-05-03T14:00:30.941Z,4.00
2019-05-03T14:03:37.387Z,3.58
2019-05-03T14:06:44.737Z,3.22
2019-05-03T14:09:51.398Z,4.60
2019-05-03T14:12:57.823Z,3.15
2019-05-03T14:16:05.557Z,2.00
2019-05-03T14:19:17.291Z,2.30
2019-05-03T14:22:26.049Z,3.77
2019-05-03T14:25:32.547Z,4.15
2019-05-03T14:28:39.186Z,2.65
2019-05-03T14:31:45.769Z,2.80
2019-05-03T14:34:54.589Z,4.08
2019-05-03T14:38:00.631Z,4.90
2019-05-03T14:41:07.231Z,4.15
2019-05-03T14:44:15.584Z,3.62
2019-05-03T14:47:22.061Z,4.78
2019-05-03T14:50:28.729Z,4.45
2019-05-03T14:53:35.348Z,3.20
2019-05-03T14:56:47.460Z,4.83
2019-05-03T15:00:11.881Z,3.92
2019-05-03T15:03:21.721Z,3.40
2019-05-03T15:06:28.346Z,4.10
2019-05-03T15:09:35.429Z,3.37
2019-05-03T15:12:42.035Z,2.62
2019-05-03T15:15:48.457Z,2.77
2019-05-03T15:18:56.378Z,4.20
2019-05-03T15:22:02.866Z,4.05
2019-05-03T15:25:09.360Z,3.35
2019-05-03T15:28:15.946Z,5.92
2019-05-03T15:31:24.446Z,4.45
2019-05-03T15:34:30.757Z,3.65
2019-05-03T15:37:37.427Z,3.27
2019-05-03T15:40:46.191Z,3.15
2019-05-03T15:43:57.967Z,3.80
2019-05-03T15:47:10.488Z,3.10
2019-05-03T15:53:24.665Z,2.98
2019-05-03T15:56:31.452Z,6.72
2019-05-03T15:59:38.079Z,4.67
2019-05-03T16:02:44.710Z,3.30
2019-05-03T16:05:51.241Z,4.45
2019-05-03T16:08:57.804Z,7.47
2019-05-03T16:12:05.142Z,6.55
2019-05-03T16:15:12.742Z,6.00
2019-05-03T16:18:19.263Z,5.00
2019-05-03T16:21:25.777Z,5.22
2019-05-03T16:24:32.394Z,4.58
2019-05-03T16:27:51.091Z,3.08
2019-05-03T16:31:00.108Z,4.03
2019-05-03T16:34:06.673Z,3.00
2019-05-03T16:37:14.883Z,3.00
2019-05-03T16:40:21.741Z,3.45
2019-05-03T16:43:29.382Z,3.50
2019-05-03T16:46:35.903Z,3.37
2019-05-03T16:49:42.529Z,3.47
2019-05-03T16:52:49.034Z,3.35
2019-05-03T16:55:55.473Z,3.10
2019-05-03T16:59:05.739Z,3.62
2019-05-03T17:02:12.366Z,4.40
2019-05-03T17:05:34.180Z,3.87
2019-05-03T17:09:00.198Z,4.20
2019-05-03T17:12:19.381Z,5.45
2019-05-03T17:15:25.925Z,5.33
2019-05-03T17:18:35.304Z,4.00
2019-05-03T17:21:41.860Z,3.22
2019-05-03T17:24:48.454Z,4.00
2019-05-03T17:27:54.961Z,3.67
2019-05-03T17:31:01.369Z,4.75
2019-05-03T17:34:10.271Z,4.00
2019-05-03T17:37:16.944Z,3.70
2019-05-03T17:40:49.917Z,4.25
2019-05-03T17:44:04.911Z,3.65
2019-05-03T17:47:10.982Z,3.10
2019-05-03T17:50:17.452Z,5.22
2019-05-03T17:53:42.791Z,4.45
2019-05-03T17:57:01.755Z,3.72
2019-05-03T18:00:24.348Z,4.03
2019-05-03T18:03:33.913Z,3.50
2019-05-03T18:06:46.826Z,5.55
2019-05-03T18:09:55.384Z,4.28
2019-05-03T18:13:01.994Z,4.05
2019-05-03T18:16:08.520Z,3.22
2019-05-03T18:19:15.167Z,3.70
2019-05-03T18:22:21.597Z,3.77
2019-05-03T18:25:28.074Z,4.20
2019-05-03T18:28:35.635Z,3.45
2019-05-03T18:31:42.219Z,4.53
2019-05-03T18:34:48.733Z,6.08
2019-05-03T18:37:59.066Z,4.83
2019-05-03T18:41:05.471Z,5.90
2019-05-03T18:44:23.415Z,5.20
2019-05-03T18:47:30.070Z,4.75
2019-05-03T18:50:36.523Z,4.67
2019-05-03T18:53:44.925Z,6.00
2019-05-03T18:56:51.379Z,5.47
2019-05-03T18:59:57.771Z,4.37
2019-05-03T19:03:04.589Z,6.37
2019-05-03T19:06:11.848Z,5.25
2019-05-03T19:09:46.093Z,3.90
2019-05-03T19:13:49.040Z,5.17
2019-05-03T19:17:02.596Z,4.75
2019-05-03T19:20:15.324Z,4.40
2019-05-03T19:23:21.945Z,4.33
2019-05-03T19:26:28.490Z,5.15
2019-05-03T19:29:35.288Z,4.28
2019-05-03T19:32:44.999Z,5.15
2019-05-03T19:35:52.005Z,3.75
2019-05-03T19:38:58.501Z,4.22
2019-05-03T19:42:05.078Z,4.70
2019-05-03T19:45:12.192Z,3.42
2019-05-03T19:48:18.708Z,4.28
2019-05-03T19:51:25.620Z,6.17
2019-05-03T19:54:36.134Z,5.28
2019-05-03T19:57:42.340Z,4.45
2019-05-03T20:01:06.809Z,5.00
2019-05-03T20:04:34.800Z,4.72
2019-05-03T20:08:07.604Z,4.97
2019-05-03T20:11:17.705Z,5.70
2019-05-03T20:14:25.785Z,5.15
2019-05-03T20:17:34.589Z,4.55
2019-05-03T20:20:44.649Z,4.62
2019-05-03T20:23:51.344Z,5.00
2019-05-03T20:26:57.824Z,4.65
2019-05-03T20:30:05.763Z,4.15
2019-05-03T20:33:13.974Z,5.95
2019-05-03T20:36:20.576Z,5.92
2019-05-03T20:39:27.199Z,4.67
2019-05-03T20:42:51.516Z,5.72
2019-05-03T20:46:15.176Z,6.53
2019-05-03T20:49:22.008Z,7.45
2019-05-03T20:52:28.512Z,6.85
2019-05-03T20:55:35.356Z,5.00
2019-05-03T20:58:41.792Z,4.50
2019-05-03T21:01:48.259Z,5.40
2019-05-03T21:04:55.030Z,4.92
2019-05-03T21:08:01.702Z,5.58
2019-05-03T21:11:11.170Z,6.62
2019-05-03T21:14:17.724Z,4.22
2019-05-03T21:17:47.166Z,4.45
2019-05-03T21:21:02.618Z,5.10
2019-05-03T21:24:18.452Z,4.80
2019-05-03T21:27:24.886Z,5.97
2019-05-03T21:30:32.805Z,5.22
2019-05-03T21:33:39.550Z,4.75
2019-05-03T21:36:47.317Z,4.12
2019-05-03T21:39:54.763Z,4.15
2019-05-03T21:43:01.467Z,4.92
2019-05-03T21:46:15.038Z,5.50
2019-05-03T21:49:27.025Z,5.08
2019-05-03T21:52:35.314Z,4.40
2019-05-03T21:55:44.579Z,4.75
2019-05-03T21:58:51.118Z,5.67
2019-05-03T22:01:58.107Z,3.98
2019-05-03T22:05:04.746Z,4.95
2019-05-03T22:08:11.300Z,5.20
2019-05-03T22:11:17.708Z,4.15
2019-05-03T22:14:38.676Z,6.55
2019-05-03T22:18:10.521Z,5.83
2019-05-03T22:21:26.804Z,4.78
2019-05-03T22:24:38.066Z,4.87
2019-05-03T22:27:46.461Z,4.78
2019-05-03T22:30:54.611Z,6.28
2019-05-03T22:34:01.460Z,6.15
2019-05-03T22:37:32.370Z,4.20
2019-05-03T22:40:44.291Z,3.92
2019-05-03T22:43:51.800Z,4.78
2019-05-03T22:46:58.514Z,4.25
2019-05-03T22:50:05.485Z,5.20
2019-05-03T22:53:12.213Z,4.65
2019-05-03T22:56:18.743Z,4.03
2019-05-03T22:59:25.508Z,5.55
2019-05-03T23:02:32.138Z,5.17
2019-05-03T23:05:38.896Z,5.60
2019-05-03T23:08:45.544Z,4.30
2019-05-03T23:11:52.078Z,5.25
2019-05-03T23:14:58.773Z,4.90
2019-05-03T23:18:05.354Z,4.20
2019-05-03T23:21:19.879Z,5.95
2019-05-03T23:24:28.431Z,5.10
2019-05-03T23:27:35.370Z,4.30
2019-05-03T23:30:41.993Z,5.28
2019-05-03T23:33:48.678Z,4.92
2019-05-03T23:36:55.537Z,4.78
2019-05-03T23:40:01.988Z,4.92
2019-05-03T23:43:08.934Z,4.37
2019-05-03T23:46:17.249Z,6.05
2019-05-03T23:49:25.038Z,7.45
2019-05-03T23:52:35.658Z,4.40
2019-05-03T23:55:47.126Z,4.58
2019-05-03T23:58:55.083Z,5.83
